TimeCST,TemperatureF,Dew PointF,Humidity,Sea Level PressureIn,VisibilityMPH,Wind Direction,Wind SpeedMPH,Gust SpeedMPH,PrecipitationIn,Events,Conditions,WindDirDegrees,DateUTC
12:56 AM,28.9,26.1,89,30.15,9.0,NE,4.6,-,N/A,,Clear,50,2014-01-31 06:56:00
1:56 AM,28.9,25.0,85,30.12,9.0,NE,5.8,-,N/A,,Clear,40,2014-01-31 07:56:00
2:56 AM,28.0,25.0,88,30.12,10.0,North,5.8,-,N/A,,Clear,10,2014-01-31 08:56:00
3:56 AM,28.0,24.1,85,30.12,10.0,NE,8.1,-,N/A,,Clear,40,2014-01-31 09:56:00
4:56 AM,26.1,23.0,88,30.14,10.0,NE,4.6,-,N/A,,Clear,40,2014-01-31 10:56:00
5:56 AM,27.0,23.0,85,30.16,7.0,ENE,5.8,-,N/A,,Partly Cloudy,60,2014-01-31 11:56:00
6:31 AM,28.9,25.0,85,30.20,10.0,NE,6.9,-,N/A,,Mostly Cloudy,50,2014-01-31 12:31:00
6:44 AM,30.0,26.1,85,30.21,7.0,ENE,5.8,-,N/A,,Overcast,60,2014-01-31 12:44:00
6:56 AM,30.0,26.1,85,30.19,0.5,NE,5.8,-,N/A,Fog,Light Freezing Fog,40,2014-01-31 12:56:00
7:32 AM,30.9,28.9,92,30.22,0.1,North,5.8,-,N/A,Fog,Light Freezing Fog,10,2014-01-31 13:32:00
7:56 AM,32.0,30.0,92,30.19,0.1,NNE,4.6,-,N/A,Fog,Fog,30,2014-01-31 13:56:00
8:56 AM,33.1,30.9,92,30.19,0.2,NE,6.9,-,N/A,Fog,Fog,40,2014-01-31 14:56:00
9:56 AM,36.0,34.0,93,30.20,0.2,North,4.6,-,N/A,Fog,Fog,350,2014-01-31 15:56:00
10:49 AM,39.0,37.0,93,30.22,1.0,North,4.6,-,N/A,,Overcast,360,2014-01-31 16:49:00
10:56 AM,39.0,37.0,93,30.19,2.5,Calm,Calm,-,N/A,,Overcast,0,2014-01-31 16:56:00
11:07 AM,41.0,37.9,89,30.22,3.0,East,3.5,-,N/A,,Mostly Cloudy,100,2014-01-31 17:07:00
11:15 AM,44.1,37.9,79,30.21,6.0,ENE,4.6,-,N/A,,Haze,70,2014-01-31 17:15:00
11:24 AM,43.0,37.0,80,30.20,10.0,Variable,3.5,-,N/A,,Scattered Clouds,0,2014-01-31 17:24:00
11:56 AM,46.9,37.9,71,30.16,10.0,Calm,Calm,-,N/A,,Scattered Clouds,0,2014-01-31 17:56:00
12:56 PM,55.0,35.1,47,30.12,10.0,East,5.8,-,N/A,,Partly Cloudy,100,2014-01-31 18:56:00
1:56 PM,59.0,30.0,33,30.09,10.0,ESE,5.8,-,N/A,,Clear,110,2014-01-31 19:56:00
2:56 PM,60.1,28.9,31,30.07,10.0,ESE,5.8,-,N/A,,Clear,110,2014-01-31 20:56:00
3:56 PM,60.1,27.0,28,30.07,10.0,ESE,8.1,-,N/A,,Clear,110,2014-01-31 21:56:00
4:56 PM,57.0,28.9,34,30.07,10.0,ESE,4.6,-,N/A,,Scattered Clouds,120,2014-01-31 22:56:00
5:56 PM,48.9,37.0,64,30.08,10.0,South,4.6,-,N/A,,Scattered Clouds,180,2014-01-31 23:56:00
6:56 PM,46.0,42.1,86,30.09,10.0,South,4.6,-,N/A,,Scattered Clouds,180,2014-02-01 00:56:00
7:56 PM,46.9,45.0,93,30.11,10.0,Calm,Calm,-,N/A,,Mostly Cloudy,0,2014-02-01 01:56:00
8:56 PM,46.0,41.0,83,30.11,10.0,Calm,Calm,-,N/A,,Overcast,0,2014-02-01 02:56:00
9:56 PM,46.9,41.0,80,30.12,10.0,Calm,Calm,-,N/A,,Overcast,0,2014-02-01 03:56:00
10:56 PM,48.0,42.1,80,30.11,10.0,Calm,Calm,-,N/A,,Overcast,0,2014-02-01 04:56:00
11:56 PM,48.0,43.0,83,30.08,10.0,Calm,Calm,-,N/A,,Overcast,0,2014-02-01 05:56:00